sensor_id;sensor_type;location;lat;lon;timestamp;temperature;humidity
6627;DHT22;3349;49.830;8.748;2022-09-09T00:01:46;17.70;1.00
6627;DHT22;3349;49.830;8.748;2022-09-09T00:04:20;17.70;1.00
6627;DHT22;3349;49.830;8.748;2022-09-09T00:07:00;17.70;1.00
6627;DHT22;3349;49.830;8.748;2022-09-09T00:09:30;17.60;1.00
6627;DHT22;3349;49.830;8.748;2022-09-09T00:12:02;17.60;1.00
6627;DHT22;3349;49.830;8.748;2022-09-09T00:14:38;17.50;1.00
6627;DHT22;3349;49.830;8.748;2022-09-09T00:17:16;17.50;1.00
6627;DHT22;3349;49.830;8.748;2022-09-09T00:19:48;17.50;1.00
6627;DHT22;3349;49.830;8.748;2022-09-09T00:22:18;17.50;1.00
6627;DHT22;3349;49.830;8.748;2022-09-09T00:24:46;17.40;1.00
6627;DHT22;3349;49.830;8.748;2022-09-09T00:27:21;17.40;1.00
6627;DHT22;3349;49.830;8.748;2022-09-09T00:29:53;17.40;1.00
6627;DHT22;3349;49.830;8.748;2022-09-09T00:32:22;17.40;1.00
6627;DHT22;3349;49.830;8.748;2022-09-09T00:34:53;17.40;1.00
6627;DHT22;3349;49.830;8.748;2022-09-09T00:37:22;17.50;1.00
6627;DHT22;3349;49.830;8.748;2022-09-09T00:39:52;17.40;1.00
6627;DHT22;3349;49.830;8.748;2022-09-09T00:42:24;17.50;1.00
6627;DHT22;3349;49.830;8.748;2022-09-09T00:44:58;17.50;1.00
6627;DHT22;3349;49.830;8.748;2022-09-09T00:47:46;17.50;1.00
6627;DHT22;3349;49.830;8.748;2022-09-09T00:50:27;17.50;1.00
6627;DHT22;3349;49.830;8.748;2022-09-09T00:53:04;17.60;1.00
6627;DHT22;3349;49.830;8.748;2022-09-09T00:55:43;17.60;1.00
6627;DHT22;3349;49.830;8.748;2022-09-09T00:58:12;17.60;1.00
6627;DHT22;3349;49.830;8.748;2022-09-09T01:00:43;17.60;1.00
6627;DHT22;3349;49.830;8.748;2022-09-09T01:03:35;17.60;1.00
6627;DHT22;3349;49.830;8.748;2022-09-09T01:06:13;17.60;1.00
6627;DHT22;3349;49.830;8.748;2022-09-09T01:08:52;17.60;1.00
6627;DHT22;3349;49.830;8.748;2022-09-09T01:11:25;17.60;1.00
6627;DHT22;3349;49.830;8.748;2022-09-09T01:13:56;17.60;1.00
6627;DHT22;3349;49.830;8.748;2022-09-09T01:16:26;17.60;1.00
6627;DHT22;3349;49.830;8.748;2022-09-09T01:18:58;17.60;1.00
6627;DHT22;3349;49.830;8.748;2022-09-09T01:21:35;17.60;1.00
6627;DHT22;3349;49.830;8.748;2022-09-09T01:24:17;17.70;1.00
6627;DHT22;3349;49.830;8.748;2022-09-09T01:26:49;17.70;1.00
6627;DHT22;3349;49.830;8.748;2022-09-09T01:29:19;17.70;1.00
6627;DHT22;3349;49.830;8.748;2022-09-09T01:31:53;17.60;1.00
6627;DHT22;3349;49.830;8.748;2022-09-09T01:34:21;17.70;1.00
6627;DHT22;3349;49.830;8.748;2022-09-09T01:36:53;17.60;1.00
6627;DHT22;3349;49.830;8.748;2022-09-09T01:39:21;17.60;1.00
6627;DHT22;3349;49.830;8.748;2022-09-09T01:45:12;17.50;1.00
6627;DHT22;3349;49.830;8.748;2022-09-09T01:47:38;17.50;1.00
6627;DHT22;3349;49.830;8.748;2022-09-09T01:50:07;17.50;1.00
6627;DHT22;3349;49.830;8.748;2022-09-09T01:52:35;17.40;1.00
6627;DHT22;3349;49.830;8.748;2022-09-09T01:55:04;17.30;1.00
6627;DHT22;3349;49.830;8.748;2022-09-09T01:57:34;17.40;1.00
6627;DHT22;3349;49.830;8.748;2022-09-09T02:00:05;17.30;1.00
6627;DHT22;3349;49.830;8.748;2022-09-09T02:02:38;17.30;1.00
6627;DHT22;3349;49.830;8.748;2022-09-09T02:05:17;17.30;1.00
6627;DHT22;3349;49.830;8.748;2022-09-09T02:07:50;17.30;1.00
6627;DHT22;3349;49.830;8.748;2022-09-09T02:10:21;17.20;1.00
6627;DHT22;3349;49.830;8.748;2022-09-09T02:12:53;17.30;1.00
6627;DHT22;3349;49.830;8.748;2022-09-09T02:15:32;17.20;1.00
6627;DHT22;3349;49.830;8.748;2022-09-09T02:18:03;17.20;1.00
6627;DHT22;3349;49.830;8.748;2022-09-09T02:20:32;17.20;1.00
6627;DHT22;3349;49.830;8.748;2022-09-09T02:22:59;17.20;1.00
6627;DHT22;3349;49.830;8.748;2022-09-09T02:25:28;17.20;1.00
6627;DHT22;3349;49.830;8.748;2022-09-09T02:27:56;17.20;1.00
6627;DHT22;3349;49.830;8.748;2022-09-09T02:30:24;17.20;1.00
6627;DHT22;3349;49.830;8.748;2022-09-09T02:32:53;17.20;1.00
6627;DHT22;3349;49.830;8.748;2022-09-09T02:35:24;17.30;1.00
6627;DHT22;3349;49.830;8.748;2022-09-09T02:37:53;17.20;1.00
6627;DHT22;3349;49.830;8.748;2022-09-09T02:40:22;17.30;1.00
6627;DHT22;3349;49.830;8.748;2022-09-09T02:42:49;17.30;1.00
6627;DHT22;3349;49.830;8.748;2022-09-09T02:45:19;17.20;1.00
6627;DHT22;3349;49.830;8.748;2022-09-09T02:47:50;17.30;1.00
6627;DHT22;3349;49.830;8.748;2022-09-09T02:50:24;17.30;1.00
6627;DHT22;3349;49.830;8.748;2022-09-09T02:53:00;17.30;1.00
6627;DHT22;3349;49.830;8.748;2022-09-09T02:55:36;17.40;1.00
6627;DHT22;3349;49.830;8.748;2022-09-09T02:58:05;17.30;1.00
6627;DHT22;3349;49.830;8.748;2022-09-09T03:00:34;17.30;1.00
6627;DHT22;3349;49.830;8.748;2022-09-09T03:03:02;17.20;1.00
6627;DHT22;3349;49.830;8.748;2022-09-09T03:05:31;17.30;1.00
6627;DHT22;3349;49.830;8.748;2022-09-09T03:07:58;17.30;1.00
6627;DHT22;3349;49.830;8.748;2022-09-09T03:10:25;17.30;1.00
6627;DHT22;3349;49.830;8.748;2022-09-09T03:12:51;17.20;1.00
6627;DHT22;3349;49.830;8.748;2022-09-09T03:15:18;17.20;1.00
6627;DHT22;3349;49.830;8.748;2022-09-09T03:17:45;17.20;1.00
6627;DHT22;3349;49.830;8.748;2022-09-09T03:20:12;17.20;1.00
6627;DHT22;3349;49.830;8.748;2022-09-09T03:22:40;17.20;1.00
6627;DHT22;3349;49.830;8.748;2022-09-09T03:25:08;17.20;1.00
6627;DHT22;3349;49.830;8.748;2022-09-09T03:27:34;17.20;1.00
6627;DHT22;3349;49.830;8.748;2022-09-09T03:30:01;17.20;1.00
6627;DHT22;3349;49.830;8.748;2022-09-09T03:32:29;17.10;1.00
6627;DHT22;3349;49.830;8.748;2022-09-09T03:34:56;17.10;1.00
6627;DHT22;3349;49.830;8.748;2022-09-09T03:37:23;17.00;1.00
6627;DHT22;3349;49.830;8.748;2022-09-09T03:39:51;17.00;1.00
6627;DHT22;3349;49.830;8.748;2022-09-09T03:42:20;16.90;1.00
6627;DHT22;3349;49.830;8.748;2022-09-09T03:44:47;16.90;1.00
6627;DHT22;3349;49.830;8.748;2022-09-09T03:47:16;16.90;1.00
6627;DHT22;3349;49.830;8.748;2022-09-09T03:49:43;16.80;1.00
6627;DHT22;3349;49.830;8.748;2022-09-09T03:52:10;16.80;1.00
6627;DHT22;3349;49.830;8.748;2022-09-09T03:54:37;16.80;1.00
6627;DHT22;3349;49.830;8.748;2022-09-09T03:57:06;16.80;1.00
6627;DHT22;3349;49.830;8.748;2022-09-09T03:59:33;16.80;1.00
6627;DHT22;3349;49.830;8.748;2022-09-09T04:02:00;16.80;1.00
6627;DHT22;3349;49.830;8.748;2022-09-09T04:04:27;16.80;1.00
6627;DHT22;3349;49.830;8.748;2022-09-09T04:06:54;16.70;1.00
6627;DHT22;3349;49.830;8.748;2022-09-09T04:09:21;16.70;1.00
6627;DHT22;3349;49.830;8.748;2022-09-09T04:11:48;16.60;1.00
6627;DHT22;3349;49.830;8.748;2022-09-09T04:14:17;16.60;1.00
6627;DHT22;3349;49.830;8.748;2022-09-09T04:16:43;16.60;1.00
6627;DHT22;3349;49.830;8.748;2022-09-09T04:19:11;16.50;1.00
6627;DHT22;3349;49.830;8.748;2022-09-09T04:21:39;16.50;1.00
6627;DHT22;3349;49.830;8.748;2022-09-09T04:24:06;16.50;1.00
6627;DHT22;3349;49.830;8.748;2022-09-09T04:26:33;16.50;1.00
6627;DHT22;3349;49.830;8.748;2022-09-09T04:29:00;16.50;1.00
6627;DHT22;3349;49.830;8.748;2022-09-09T04:31:28;16.50;1.00
6627;DHT22;3349;49.830;8.748;2022-09-09T04:33:55;16.50;1.00
6627;DHT22;3349;49.830;8.748;2022-09-09T04:36:22;16.50;1.00
6627;DHT22;3349;49.830;8.748;2022-09-09T04:38:49;16.40;1.00
6627;DHT22;3349;49.830;8.748;2022-09-09T04:41:16;16.40;1.00
6627;DHT22;3349;49.830;8.748;2022-09-09T04:43:43;16.40;1.00
6627;DHT22;3349;49.830;8.748;2022-09-09T04:46:10;16.30;1.00
6627;DHT22;3349;49.830;8.748;2022-09-09T04:48:38;16.30;1.00
6627;DHT22;3349;49.830;8.748;2022-09-09T04:51:08;16.20;1.00
6627;DHT22;3349;49.830;8.748;2022-09-09T04:53:35;16.20;1.00
6627;DHT22;3349;49.830;8.748;2022-09-09T04:56:03;16.10;1.00
6627;DHT22;3349;49.830;8.748;2022-09-09T04:58:31;16.10;1.00
6627;DHT22;3349;49.830;8.748;2022-09-09T05:01:06;16.10;1.00
6627;DHT22;3349;49.830;8.748;2022-09-09T05:03:33;16.10;1.00
6627;DHT22;3349;49.830;8.748;2022-09-09T05:06:05;16.10;1.00
6627;DHT22;3349;49.830;8.748;2022-09-09T05:08:34;16.10;1.00
6627;DHT22;3349;49.830;8.748;2022-09-09T05:11:00;16.10;1.00
6627;DHT22;3349;49.830;8.748;2022-09-09T05:13:28;16.10;1.00
6627;DHT22;3349;49.830;8.748;2022-09-09T05:15:56;16.20;1.00
6627;DHT22;3349;49.830;8.748;2022-09-09T05:18:24;16.20;1.00
6627;DHT22;3349;49.830;8.748;2022-09-09T05:20:50;16.30;1.00
6627;DHT22;3349;49.830;8.748;2022-09-09T05:23:19;16.30;1.00
6627;DHT22;3349;49.830;8.748;2022-09-09T05:25:54;16.30;1.00
6627;DHT22;3349;49.830;8.748;2022-09-09T05:28:22;16.30;1.00
6627;DHT22;3349;49.830;8.748;2022-09-09T05:30:55;16.40;1.00
6627;DHT22;3349;49.830;8.748;2022-09-09T05:33:23;16.50;1.00
6627;DHT22;3349;49.830;8.748;2022-09-09T05:35:55;16.50;1.00
6627;DHT22;3349;49.830;8.748;2022-09-09T05:38:24;16.50;1.00
6627;DHT22;3349;49.830;8.748;2022-09-09T05:40:51;16.50;1.00
6627;DHT22;3349;49.830;8.748;2022-09-09T05:43:18;16.50;1.00
6627;DHT22;3349;49.830;8.748;2022-09-09T05:45:46;16.50;1.00
6627;DHT22;3349;49.830;8.748;2022-09-09T05:48:13;16.50;1.00
6627;DHT22;3349;49.830;8.748;2022-09-09T05:50:41;16.60;1.00
6627;DHT22;3349;49.830;8.748;2022-09-09T05:53:08;16.60;1.00
6627;DHT22;3349;49.830;8.748;2022-09-09T05:55:36;16.60;1.00
6627;DHT22;3349;49.830;8.748;2022-09-09T05:58:03;16.60;1.00
6627;DHT22;3349;49.830;8.748;2022-09-09T06:00:30;16.60;1.00
6627;DHT22;3349;49.830;8.748;2022-09-09T06:02:57;16.70;1.00
6627;DHT22;3349;49.830;8.748;2022-09-09T06:05:24;16.80;1.00
6627;DHT22;3349;49.830;8.748;2022-09-09T06:07:52;17.00;1.00
6627;DHT22;3349;49.830;8.748;2022-09-09T06:10:19;17.10;1.00
6627;DHT22;3349;49.830;8.748;2022-09-09T06:12:47;17.30;1.00
6627;DHT22;3349;49.830;8.748;2022-09-09T06:15:14;17.40;1.00
6627;DHT22;3349;49.830;8.748;2022-09-09T06:17:41;17.50;1.00
6627;DHT22;3349;49.830;8.748;2022-09-09T06:20:08;17.50;1.00
6627;DHT22;3349;49.830;8.748;2022-09-09T06:22:35;17.50;1.00
6627;DHT22;3349;49.830;8.748;2022-09-09T06:25:02;17.50;1.00
6627;DHT22;3349;49.830;8.748;2022-09-09T06:27:29;17.50;1.00
6627;DHT22;3349;49.830;8.748;2022-09-09T06:29:57;17.60;1.00
6627;DHT22;3349;49.830;8.748;2022-09-09T06:32:24;17.70;1.00
6627;DHT22;3349;49.830;8.748;2022-09-09T06:34:52;17.80;1.00
6627;DHT22;3349;49.830;8.748;2022-09-09T06:37:19;17.80;1.00
6627;DHT22;3349;49.830;8.748;2022-09-09T06:39:46;17.90;1.00
6627;DHT22;3349;49.830;8.748;2022-09-09T06:42:13;17.90;1.00
6627;DHT22;3349;49.830;8.748;2022-09-09T06:44:41;18.00;1.00
6627;DHT22;3349;49.830;8.748;2022-09-09T06:47:09;18.10;1.00
6627;DHT22;3349;49.830;8.748;2022-09-09T06:49:36;18.20;1.00
6627;DHT22;3349;49.830;8.748;2022-09-09T06:52:03;18.30;1.00
6627;DHT22;3349;49.830;8.748;2022-09-09T06:54:30;18.40;1.00
6627;DHT22;3349;49.830;8.748;2022-09-09T06:56:56;18.40;1.00
6627;DHT22;3349;49.830;8.748;2022-09-09T06:59:23;18.40;1.00
6627;DHT22;3349;49.830;8.748;2022-09-09T07:01:51;18.40;1.00
6627;DHT22;3349;49.830;8.748;2022-09-09T07:04:21;18.40;1.00
6627;DHT22;3349;49.830;8.748;2022-09-09T07:06:47;18.50;1.00
6627;DHT22;3349;49.830;8.748;2022-09-09T07:09:15;18.60;1.00
6627;DHT22;3349;49.830;8.748;2022-09-09T07:11:44;18.60;1.00
6627;DHT22;3349;49.830;8.748;2022-09-09T07:14:11;18.50;1.00
6627;DHT22;3349;49.830;8.748;2022-09-09T07:16:39;18.50;1.00
6627;DHT22;3349;49.830;8.748;2022-09-09T07:19:07;18.50;1.00
6627;DHT22;3349;49.830;8.748;2022-09-09T07:21:35;18.40;1.00
6627;DHT22;3349;49.830;8.748;2022-09-09T07:24:02;18.30;1.00
6627;DHT22;3349;49.830;8.748;2022-09-09T07:26:33;18.30;1.00
6627;DHT22;3349;49.830;8.748;2022-09-09T07:29:00;18.30;1.00
6627;DHT22;3349;49.830;8.748;2022-09-09T07:31:29;18.30;1.00
6627;DHT22;3349;49.830;8.748;2022-09-09T07:33:57;18.40;1.00
6627;DHT22;3349;49.830;8.748;2022-09-09T07:36:26;18.40;1.00
6627;DHT22;3349;49.830;8.748;2022-09-09T07:38:56;18.50;1.00
6627;DHT22;3349;49.830;8.748;2022-09-09T07:44:45;18.50;1.00
6627;DHT22;3349;49.830;8.748;2022-09-09T07:47:12;18.50;1.00
6627;DHT22;3349;49.830;8.748;2022-09-09T07:49:38;18.40;1.00
6627;DHT22;3349;49.830;8.748;2022-09-09T07:52:06;18.40;1.00
6627;DHT22;3349;49.830;8.748;2022-09-09T07:54:34;18.40;1.00
6627;DHT22;3349;49.830;8.748;2022-09-09T07:57:00;18.40;1.00
6627;DHT22;3349;49.830;8.748;2022-09-09T07:59:29;18.50;1.00
6627;DHT22;3349;49.830;8.748;2022-09-09T08:01:56;18.60;1.00
6627;DHT22;3349;49.830;8.748;2022-09-09T08:04:25;18.70;1.00
6627;DHT22;3349;49.830;8.748;2022-09-09T08:06:54;19.00;1.00
6627;DHT22;3349;49.830;8.748;2022-09-09T08:09:22;19.10;1.00
6627;DHT22;3349;49.830;8.748;2022-09-09T08:11:52;19.10;1.00
6627;DHT22;3349;49.830;8.748;2022-09-09T08:14:19;18.90;1.00
6627;DHT22;3349;49.830;8.748;2022-09-09T08:16:48;19.00;1.00
6627;DHT22;3349;49.830;8.748;2022-09-09T08:19:15;19.10;1.00
6627;DHT22;3349;49.830;8.748;2022-09-09T08:21:43;19.20;1.00
6627;DHT22;3349;49.830;8.748;2022-09-09T08:24:11;19.30;1.00
6627;DHT22;3349;49.830;8.748;2022-09-09T08:26:40;19.40;1.00
6627;DHT22;3349;49.830;8.748;2022-09-09T08:29:10;19.70;1.00
6627;DHT22;3349;49.830;8.748;2022-09-09T08:31:38;19.90;1.00
6627;DHT22;3349;49.830;8.748;2022-09-09T08:34:06;20.20;1.00
6627;DHT22;3349;49.830;8.748;2022-09-09T08:36:36;20.50;1.00
6627;DHT22;3349;49.830;8.748;2022-09-09T08:39:04;20.70;1.00
6627;DHT22;3349;49.830;8.748;2022-09-09T08:41:43;20.70;1.00
6627;DHT22;3349;49.830;8.748;2022-09-09T08:44:23;20.80;1.00
6627;DHT22;3349;49.830;8.748;2022-09-09T08:47:01;20.80;1.00
6627;DHT22;3349;49.830;8.748;2022-09-09T08:49:50;20.60;1.00
6627;DHT22;3349;49.830;8.748;2022-09-09T08:52:25;20.50;1.00
6627;DHT22;3349;49.830;8.748;2022-09-09T08:54:55;20.40;1.00
6627;DHT22;3349;49.830;8.748;2022-09-09T08:57:28;20.20;1.00
6627;DHT22;3349;49.830;8.748;2022-09-09T08:59:57;20.20;1.00
6627;DHT22;3349;49.830;8.748;2022-09-09T09:02:27;20.40;1.00
6627;DHT22;3349;49.830;8.748;2022-09-09T09:05:08;20.50;1.00
6627;DHT22;3349;49.830;8.748;2022-09-09T09:07:55;20.70;1.00
6627;DHT22;3349;49.830;8.748;2022-09-09T09:10:36;20.70;1.00
6627;DHT22;3349;49.830;8.748;2022-09-09T09:13:12;21.00;1.00
6627;DHT22;3349;49.830;8.748;2022-09-09T09:15:42;21.30;1.00
6627;DHT22;3349;49.830;8.748;2022-09-09T09:18:11;21.80;1.00
6627;DHT22;3349;49.830;8.748;2022-09-09T09:20:45;21.70;1.00
6627;DHT22;3349;49.830;8.748;2022-09-09T09:23:19;22.20;1.00
6627;DHT22;3349;49.830;8.748;2022-09-09T09:25:47;22.50;1.00
6627;DHT22;3349;49.830;8.748;2022-09-09T09:28:16;23.20;1.00
6627;DHT22;3349;49.830;8.748;2022-09-09T09:30:49;23.90;1.00
6627;DHT22;3349;49.830;8.748;2022-09-09T09:33:20;25.90;1.00
6627;DHT22;3349;49.830;8.748;2022-09-09T09:35:48;25.90;1.00
6627;DHT22;3349;49.830;8.748;2022-09-09T09:38:17;25.70;1.00
6627;DHT22;3349;49.830;8.748;2022-09-09T09:40:49;25.90;1.00
6627;DHT22;3349;49.830;8.748;2022-09-09T09:43:21;26.00;1.00
6627;DHT22;3349;49.830;8.748;2022-09-09T09:45:51;26.80;1.00
6627;DHT22;3349;49.830;8.748;2022-09-09T09:48:18;27.10;1.00
6627;DHT22;3349;49.830;8.748;2022-09-09T09:50:49;26.40;1.00
6627;DHT22;3349;49.830;8.748;2022-09-09T09:53:20;25.20;1.00
6627;DHT22;3349;49.830;8.748;2022-09-09T09:55:53;24.20;1.00
6627;DHT22;3349;49.830;8.748;2022-09-09T09:58:20;23.30;1.00
6627;DHT22;3349;49.830;8.748;2022-09-09T10:00:48;22.90;1.00
6627;DHT22;3349;49.830;8.748;2022-09-09T10:03:23;22.50;1.00
6627;DHT22;3349;49.830;8.748;2022-09-09T10:05:50;22.10;1.00
6627;DHT22;3349;49.830;8.748;2022-09-09T10:08:17;22.10;1.00
6627;DHT22;3349;49.830;8.748;2022-09-09T10:11:04;23.30;1.00
6627;DHT22;3349;49.830;8.748;2022-09-09T10:13:39;24.20;1.00
6627;DHT22;3349;49.830;8.748;2022-09-09T10:16:21;26.90;1.00
6627;DHT22;3349;49.830;8.748;2022-09-09T10:18:59;28.40;1.00
6627;DHT22;3349;49.830;8.748;2022-09-09T10:21:52;29.50;1.00
6627;DHT22;3349;49.830;8.748;2022-09-09T10:24:37;30.00;1.00
6627;DHT22;3349;49.830;8.748;2022-09-09T10:27:15;31.00;1.00
6627;DHT22;3349;49.830;8.748;2022-09-09T10:30:02;30.60;1.00
6627;DHT22;3349;49.830;8.748;2022-09-09T10:32:39;29.90;1.00
6627;DHT22;3349;49.830;8.748;2022-09-09T10:35:14;28.50;1.00
6627;DHT22;3349;49.830;8.748;2022-09-09T10:38:04;26.90;1.00
6627;DHT22;3349;49.830;8.748;2022-09-09T10:40:39;25.70;1.00
6627;DHT22;3349;49.830;8.748;2022-09-09T10:43:16;24.90;1.00
6627;DHT22;3349;49.830;8.748;2022-09-09T10:45:53;24.20;1.00
6627;DHT22;3349;49.830;8.748;2022-09-09T10:48:31;25.20;1.00
6627;DHT22;3349;49.830;8.748;2022-09-09T10:51:21;26.30;1.00
6627;DHT22;3349;49.830;8.748;2022-09-09T10:53:56;26.70;1.00
6627;DHT22;3349;49.830;8.748;2022-09-09T10:56:26;27.00;1.00
6627;DHT22;3349;49.830;8.748;2022-09-09T10:58:58;25.70;1.00
6627;DHT22;3349;49.830;8.748;2022-09-09T11:01:30;25.60;1.00
6627;DHT22;3349;49.830;8.748;2022-09-09T11:04:03;27.00;1.00
6627;DHT22;3349;49.830;8.748;2022-09-09T11:06:39;28.70;1.00
6627;DHT22;3349;49.830;8.748;2022-09-09T11:09:13;30.20;1.00
6627;DHT22;3349;49.830;8.748;2022-09-09T11:11:45;30.00;1.00
6627;DHT22;3349;49.830;8.748;2022-09-09T11:14:18;29.80;1.00
6627;DHT22;3349;49.830;8.748;2022-09-09T11:16:48;30.10;1.00
6627;DHT22;3349;49.830;8.748;2022-09-09T11:19:22;29.50;1.00
6627;DHT22;3349;49.830;8.748;2022-09-09T11:21:53;28.60;1.00
6627;DHT22;3349;49.830;8.748;2022-09-09T11:24:24;29.40;1.00
6627;DHT22;3349;49.830;8.748;2022-09-09T11:26:55;30.30;1.00
6627;DHT22;3349;49.830;8.748;2022-09-09T11:29:40;31.80;1.00
6627;DHT22;3349;49.830;8.748;2022-09-09T11:32:27;31.80;1.00
6627;DHT22;3349;49.830;8.748;2022-09-09T11:35:07;32.20;1.00
6627;DHT22;3349;49.830;8.748;2022-09-09T11:37:51;33.10;1.00
6627;DHT22;3349;49.830;8.748;2022-09-09T11:40:23;33.00;1.00
6627;DHT22;3349;49.830;8.748;2022-09-09T11:43:02;32.80;1.00
6627;DHT22;3349;49.830;8.748;2022-09-09T11:45:30;32.60;1.00
6627;DHT22;3349;49.830;8.748;2022-09-09T11:47:57;33.30;1.00
6627;DHT22;3349;49.830;8.748;2022-09-09T11:50:30;33.60;1.00
6627;DHT22;3349;49.830;8.748;2022-09-09T11:53:19;34.10;1.00
6627;DHT22;3349;49.830;8.748;2022-09-09T11:56:04;33.90;1.00
6627;DHT22;3349;49.830;8.748;2022-09-09T11:58:38;34.00;1.00
6627;DHT22;3349;49.830;8.748;2022-09-09T12:01:29;32.30;1.00
6627;DHT22;3349;49.830;8.748;2022-09-09T12:04:16;31.40;1.00
6627;DHT22;3349;49.830;8.748;2022-09-09T12:06:45;30.00;1.00
6627;DHT22;3349;49.830;8.748;2022-09-09T12:09:19;28.40;1.00
6627;DHT22;3349;49.830;8.748;2022-09-09T12:11:48;27.10;1.00
6627;DHT22;3349;49.830;8.748;2022-09-09T12:14:21;26.20;1.00
6627;DHT22;3349;49.830;8.748;2022-09-09T12:16:48;25.50;1.00
6627;DHT22;3349;49.830;8.748;2022-09-09T12:19:19;24.90;1.00
6627;DHT22;3349;49.830;8.748;2022-09-09T12:21:53;24.40;1.00
6627;DHT22;3349;49.830;8.748;2022-09-09T12:24:29;23.90;1.00
6627;DHT22;3349;49.830;8.748;2022-09-09T12:27:01;23.60;1.00
6627;DHT22;3349;49.830;8.748;2022-09-09T12:29:35;23.40;1.00
6627;DHT22;3349;49.830;8.748;2022-09-09T12:32:07;23.20;1.00
6627;DHT22;3349;49.830;8.748;2022-09-09T12:34:39;23.10;1.00
6627;DHT22;3349;49.830;8.748;2022-09-09T12:37:14;23.10;1.00
6627;DHT22;3349;49.830;8.748;2022-09-09T12:39:54;23.00;1.00
6627;DHT22;3349;49.830;8.748;2022-09-09T12:42:22;22.90;1.00
6627;DHT22;3349;49.830;8.748;2022-09-09T12:44:54;22.90;1.00
6627;DHT22;3349;49.830;8.748;2022-09-09T12:47:24;22.90;1.00
6627;DHT22;3349;49.830;8.748;2022-09-09T12:49:51;22.80;1.00
6627;DHT22;3349;49.830;8.748;2022-09-09T12:52:24;22.80;1.00
6627;DHT22;3349;49.830;8.748;2022-09-09T12:54:53;23.00;1.00
6627;DHT22;3349;49.830;8.748;2022-09-09T12:57:22;23.10;1.00
6627;DHT22;3349;49.830;8.748;2022-09-09T12:59:51;23.00;1.00
6627;DHT22;3349;49.830;8.748;2022-09-09T13:02:20;22.90;1.00
6627;DHT22;3349;49.830;8.748;2022-09-09T13:04:47;23.00;1.00
6627;DHT22;3349;49.830;8.748;2022-09-09T13:07:16;23.00;1.00
6627;DHT22;3349;49.830;8.748;2022-09-09T13:09:44;23.20;1.00
6627;DHT22;3349;49.830;8.748;2022-09-09T13:12:15;23.10;1.00
6627;DHT22;3349;49.830;8.748;2022-09-09T13:14:45;23.10;1.00
6627;DHT22;3349;49.830;8.748;2022-09-09T13:17:19;22.70;1.00
6627;DHT22;3349;49.830;8.748;2022-09-09T13:19:47;22.50;1.00
6627;DHT22;3349;49.830;8.748;2022-09-09T13:22:21;22.30;1.00
6627;DHT22;3349;49.830;8.748;2022-09-09T13:24:59;22.20;1.00
6627;DHT22;3349;49.830;8.748;2022-09-09T13:27:31;22.00;1.00
6627;DHT22;3349;49.830;8.748;2022-09-09T13:29:59;21.90;1.00
6627;DHT22;3349;49.830;8.748;2022-09-09T13:32:28;21.80;1.00
6627;DHT22;3349;49.830;8.748;2022-09-09T13:34:58;21.80;1.00
6627;DHT22;3349;49.830;8.748;2022-09-09T13:37:30;21.60;1.00
6627;DHT22;3349;49.830;8.748;2022-09-09T13:39:58;21.50;1.00
6627;DHT22;3349;49.830;8.748;2022-09-09T13:42:27;21.30;1.00
6627;DHT22;3349;49.830;8.748;2022-09-09T13:44:56;21.20;1.00
6627;DHT22;3349;49.830;8.748;2022-09-09T13:47:30;21.10;1.00
6627;DHT22;3349;49.830;8.748;2022-09-09T13:49:57;21.00;1.00
6627;DHT22;3349;49.830;8.748;2022-09-09T13:52:26;20.70;1.00
6627;DHT22;3349;49.830;8.748;2022-09-09T13:54:56;20.70;1.00
6627;DHT22;3349;49.830;8.748;2022-09-09T13:57:24;20.70;1.00
6627;DHT22;3349;49.830;8.748;2022-09-09T13:59:52;20.70;1.00
6627;DHT22;3349;49.830;8.748;2022-09-09T14:02:21;20.90;1.00
6627;DHT22;3349;49.830;8.748;2022-09-09T14:04:49;21.00;1.00
6627;DHT22;3349;49.830;8.748;2022-09-09T14:07:20;21.30;1.00
6627;DHT22;3349;49.830;8.748;2022-09-09T14:09:47;21.50;1.00
6627;DHT22;3349;49.830;8.748;2022-09-09T14:12:15;21.70;1.00
6627;DHT22;3349;49.830;8.748;2022-09-09T14:14:43;21.60;1.00
6627;DHT22;3349;49.830;8.748;2022-09-09T14:17:10;21.60;1.00
6627;DHT22;3349;49.830;8.748;2022-09-09T14:19:38;21.50;1.00
6627;DHT22;3349;49.830;8.748;2022-09-09T14:22:05;21.40;1.00
6627;DHT22;3349;49.830;8.748;2022-09-09T14:24:31;21.40;1.00
6627;DHT22;3349;49.830;8.748;2022-09-09T14:26:58;21.30;1.00
6627;DHT22;3349;49.830;8.748;2022-09-09T14:29:25;21.30;1.00
6627;DHT22;3349;49.830;8.748;2022-09-09T14:31:52;21.20;1.00
6627;DHT22;3349;49.830;8.748;2022-09-09T14:34:19;21.20;1.00
6627;DHT22;3349;49.830;8.748;2022-09-09T14:36:47;21.20;1.00
6627;DHT22;3349;49.830;8.748;2022-09-09T14:39:13;20.90;1.00
6627;DHT22;3349;49.830;8.748;2022-09-09T14:41:40;20.90;1.00
6627;DHT22;3349;49.830;8.748;2022-09-09T14:44:07;20.80;1.00
6627;DHT22;3349;49.830;8.748;2022-09-09T14:46:34;20.90;1.00
6627;DHT22;3349;49.830;8.748;2022-09-09T14:49:01;21.00;1.00
6627;DHT22;3349;49.830;8.748;2022-09-09T14:51:27;21.00;1.00
6627;DHT22;3349;49.830;8.748;2022-09-09T14:53:57;21.00;1.00
6627;DHT22;3349;49.830;8.748;2022-09-09T14:56:26;21.00;1.00
6627;DHT22;3349;49.830;8.748;2022-09-09T14:58:54;21.00;1.00
6627;DHT22;3349;49.830;8.748;2022-09-09T15:01:21;20.80;1.00
6627;DHT22;3349;49.830;8.748;2022-09-09T15:03:50;20.80;1.00
6627;DHT22;3349;49.830;8.748;2022-09-09T15:06:18;20.80;1.00
6627;DHT22;3349;49.830;8.748;2022-09-09T15:08:45;20.60;1.00
6627;DHT22;3349;49.830;8.748;2022-09-09T15:11:14;20.50;1.00
6627;DHT22;3349;49.830;8.748;2022-09-09T15:13:43;20.70;1.00
6627;DHT22;3349;49.830;8.748;2022-09-09T15:16:11;20.80;1.00
6627;DHT22;3349;49.830;8.748;2022-09-09T15:18:38;20.70;1.00
6627;DHT22;3349;49.830;8.748;2022-09-09T15:21:08;20.60;1.00
6627;DHT22;3349;49.830;8.748;2022-09-09T15:23:36;20.60;1.00
6627;DHT22;3349;49.830;8.748;2022-09-09T15:26:03;20.40;1.00
6627;DHT22;3349;49.830;8.748;2022-09-09T15:28:33;20.30;1.00
6627;DHT22;3349;49.830;8.748;2022-09-09T15:31:05;20.30;1.00
6627;DHT22;3349;49.830;8.748;2022-09-09T15:33:33;20.10;1.00
6627;DHT22;3349;49.830;8.748;2022-09-09T15:36:12;20.20;1.00
6627;DHT22;3349;49.830;8.748;2022-09-09T15:38:39;20.10;1.00
6627;DHT22;3349;49.830;8.748;2022-09-09T15:41:06;20.10;1.00
6627;DHT22;3349;49.830;8.748;2022-09-09T15:43:34;20.10;1.00
6627;DHT22;3349;49.830;8.748;2022-09-09T15:46:09;20.10;1.00
6627;DHT22;3349;49.830;8.748;2022-09-09T15:48:48;20.20;1.00
6627;DHT22;3349;49.830;8.748;2022-09-09T15:51:16;20.30;1.00
6627;DHT22;3349;49.830;8.748;2022-09-09T15:53:43;20.30;1.00
6627;DHT22;3349;49.830;8.748;2022-09-09T15:56:10;20.40;1.00
6627;DHT22;3349;49.830;8.748;2022-09-09T15:58:38;20.60;1.00
6627;DHT22;3349;49.830;8.748;2022-09-09T16:01:06;20.70;1.00
6627;DHT22;3349;49.830;8.748;2022-09-09T16:03:34;21.00;1.00
6627;DHT22;3349;49.830;8.748;2022-09-09T16:06:00;21.00;1.00
6627;DHT22;3349;49.830;8.748;2022-09-09T16:08:31;20.90;1.00
6627;DHT22;3349;49.830;8.748;2022-09-09T16:11:04;20.90;1.00
6627;DHT22;3349;49.830;8.748;2022-09-09T16:13:33;20.60;1.00
6627;DHT22;3349;49.830;8.748;2022-09-09T16:16:02;20.60;1.00
6627;DHT22;3349;49.830;8.748;2022-09-09T16:18:35;20.80;1.00
6627;DHT22;3349;49.830;8.748;2022-09-09T16:21:02;21.10;1.00
6627;DHT22;3349;49.830;8.748;2022-09-09T16:23:30;21.20;1.00
6627;DHT22;3349;49.830;8.748;2022-09-09T16:25:57;21.50;1.00
6627;DHT22;3349;49.830;8.748;2022-09-09T16:28:24;21.60;1.00
6627;DHT22;3349;49.830;8.748;2022-09-09T16:30:51;21.80;1.00
6627;DHT22;3349;49.830;8.748;2022-09-09T16:33:20;21.60;1.00
6627;DHT22;3349;49.830;8.748;2022-09-09T16:35:47;21.40;1.00
6627;DHT22;3349;49.830;8.748;2022-09-09T16:38:14;21.00;1.00
6627;DHT22;3349;49.830;8.748;2022-09-09T16:40:42;20.80;1.00
6627;DHT22;3349;49.830;8.748;2022-09-09T16:43:09;20.60;1.00
6627;DHT22;3349;49.830;8.748;2022-09-09T16:45:41;20.30;1.00